Time;durP1;ratioP1;P1;durP2;ratioP2;P2;SDS_P1;SDS_P2;PMS_P1;PMS_P2;Temp;Humidity;BMP_temperature;BMP_pressure;BME280_temperature;BME280_humidity;BME280_pressure;Samples;Min_cycle;Max_cycle;Signal;HPM_P1;HPM_P2
2022/03/30 00:01:18;;;;;;;;;;;307.40;1280.00;;;;;;4920234;29;19911;-86
2022/03/30 00:03:44;;;;;;;;;;;307.40;1280.00;;;;;;4920127;29;20368;-86
2022/03/30 00:06:10;;;;;;;;;;;;;;;;;;4921493;29;20001;-86
2022/03/30 00:08:36;;;;;;;;;;;;;;;;;;4920067;29;19907;-86
2022/03/30 00:11:02;;;;;;;;;;;;;;;;;;4921443;29;19929;-86
2022/03/30 00:13:28;;;;;;;;;;;;;;;;;;4920022;29;19974;-87
2022/03/30 00:15:54;;;;;;;;;;;;;;;;;;4920078;29;20288;-86
2022/03/30 00:18:21;;;;;;;;;;;;;;;;;;4919675;29;20023;-86
2022/03/30 00:20:47;;;;;;;;;;;;;;;;;;4920003;29;19918;-85
2022/03/30 00:23:13;;;;;;;;;;;;;;;;;;4921391;29;19914;-86
2022/03/30 00:25:39;;;;;;;;;;;;;;;;;;4920745;29;19963;-86
2022/03/30 00:28:05;;;;;;;;;;;;;;;;;;4920777;29;19923;-85
2022/03/30 00:30:31;;;;;;;;;;;;;;;;;;4919755;29;19907;-86
2022/03/30 00:32:57;;;;;;;;;;;;;;;;;;4919513;29;19911;-86
2022/03/30 00:35:23;;;;;;;;;;;;;;;;;;4919655;29;20005;-86
2022/03/30 00:37:49;;;;;;;;;;;;;;;;;;4919660;29;19911;-85
2022/03/30 00:40:15;;;;;;;;;;;;;;;;;;4919428;29;19907;-87
2022/03/30 00:42:41;;;;;;;;;;;307.20;1305.60;;;;;;4919487;29;20017;-85
2022/03/30 00:45:08;;;;;;;;;;;282.30;1280.00;;;;;;4919500;29;19907;-86
2022/03/30 00:47:35;;;;;;;;;;;;;;;;;;4919346;29;20332;-85
2022/03/30 00:50:01;;;;;;;;;;;;;;;;;;4919426;29;19907;-85
2022/03/30 00:52:27;;;;;;;;;;;;;;;;;;4919307;29;19963;-85
2022/03/30 00:54:53;;;;;;;;;;;;;;;;;;4920631;29;19911;-86
2022/03/30 00:57:19;;;;;;;;;;;;;;;;;;4919152;29;20313;-87
2022/03/30 00:59:45;;;;;;;;;;;;;;;;;;4920540;29;19907;-86
2022/03/30 01:02:11;;;;;;;;;;;;;;;;;;4919254;29;19907;-85
2022/03/30 01:04:38;;;;;;;;;;;282.20;1280.00;;;;;;4920421;29;19907;-86
2022/03/30 01:07:04;;;;;;;;;;;282.10;1331.20;;;;;;4919168;29;19911;-86
2022/03/30 01:09:30;;;;;;;;;;;;;;;;;;4920170;29;19995;-86
2022/03/30 01:11:56;;;;;;;;;;;;;;;;;;4919055;29;19911;-86
2022/03/30 01:14:22;;;;;;;;;;;;;;;;;;4919007;29;19915;-86
2022/03/30 01:16:48;;;;;;;;;;;;;;;;;;4919873;29;19907;-85
2022/03/30 01:19:14;;;;;;;;;;;;;;;;;;4919818;29;20287;-85
2022/03/30 01:21:40;;;;;;;;;;;;;;;;;;4918795;29;19907;-86
2022/03/30 01:24:06;;;;;;;;;;;;;;;;;;4918751;29;19970;-86
2022/03/30 01:26:32;;;;;;;;;;;;;;;;;;4918728;29;20321;-85
2022/03/30 01:28:58;;;;;;;;;;;;;;;;;;4918584;29;19990;-86
2022/03/30 01:34:09;;;;;;;;;;;;;;;;;;4919503;29;19926;-87
2022/03/30 01:36:35;;;;;;;;;;;;;;;;;;4918472;29;19907;-86
2022/03/30 01:39:01;;;;;;;;;;;;;;;;;;4917934;29;19914;-87
2022/03/30 01:41:29;;;;;;;;;;;;;;;;;;4919489;29;19914;-87
2022/03/30 01:43:55;;;;;;;;;;;;;;;;;;4918593;29;20006;-87
2022/03/30 01:46:20;;;;;;;;;;;256.50;1356.80;;;;;;4919562;29;19942;-87
2022/03/30 01:48:46;;;;;;;;;;;256.60;1843.20;;;;;;4918443;29;19915;-86
2022/03/30 01:51:12;;;;;;;;;;;256.40;1382.40;;;;;;4919602;29;19907;-86
2022/03/30 01:53:38;;;;;;;;;;;;;;;;;;4917915;29;19915;-86
2022/03/30 01:56:04;;;;;;;;;;;;;;;;;;4918227;29;19994;-86
2022/03/30 01:58:30;;;;;;;;;;;;;;;;;;4918126;29;19947;-87
2022/03/30 02:00:57;;;;;;;;;;;;;;;;;;4918106;29;20372;-86
2022/03/30 02:03:23;;;;;;;;;;;;;;;;;;4918117;29;19914;-87
2022/03/30 02:05:49;;;;;;;;;;;;;;;;;;4917971;29;19911;-86
2022/03/30 02:08:15;;;;;;;;;;;;;;;;;;4918063;29;19995;-87
2022/03/30 02:10:41;;;;;;;;;;;;;;;;;;4917908;29;19907;-87
2022/03/30 02:13:07;;;;;;;;;;;;;;;;;;4917754;29;19931;-86
2022/03/30 02:15:33;;;;;;;;;;;;;;;;;;4917947;29;19907;-86
2022/03/30 02:17:59;;;;;;;;;;;;;;;;;;4917717;29;19919;-88
2022/03/30 02:20:25;;;;;;;;;;;;;;;;;;4917779;29;19955;-87
2022/03/30 02:22:51;;;;;;;;;;;;;;;;;;4917878;29;19907;-86
2022/03/30 02:25:18;;;;;;;;;;;;;;;;;;4917935;29;19935;-86
2022/03/30 02:27:44;;;;;;;;;;;;;;;;;;4917883;29;19963;-87
2022/03/30 02:30:10;;;;;;;;;;;;;;;;;;4917737;29;19915;-88
2022/03/30 02:32:36;;;;;;;;;;;;;;;;;;4917640;29;19914;-86
2022/03/30 02:35:03;;;;;;;;;;;256.30;1408.00;;;;;;4917542;29;19950;-87
2022/03/30 02:37:28;;;;;;;;;;;256.20;1433.60;;;;;;4917654;29;19907;-87
2022/03/30 02:39:54;;;;;;;;;;;;;;;;;;4917662;29;20257;-87
2022/03/30 02:42:21;;;;;;;;;;;;;;;;;;4917799;29;19923;-87
2022/03/30 02:44:47;;;;;;;;;;;;;;;;;;4917376;29;19955;-87
2022/03/30 02:47:13;;;;;;;;;;;;;;;;;;4917384;29;19907;-86
2022/03/30 02:49:39;;;;;;;;;;;;;;;;;;4917366;29;20085;-87
2022/03/30 02:52:05;;;;;;;;;;;;;;;;;;4917463;29;19914;-88
2022/03/30 02:54:31;;;;;;;;;;;;;;;;;;4917380;29;19915;-87
2022/03/30 02:56:57;;;;;;;;;;;;;;;;;;4917409;29;20002;-88
2022/03/30 02:59:23;;;;;;;;;;;;;;;;;;4917244;29;19954;-87
2022/03/30 03:01:49;;;;;;;;;;;;;;;;;;4918789;29;19911;-87
2022/03/30 03:04:15;;;;;;;;;;;;;;;;;;4917304;29;19932;-88
2022/03/30 03:06:41;;;;;;;;;;;;;;;;;;4917500;29;20366;-89
2022/03/30 03:09:08;;;;;;;;;;;;;;;;;;4917624;29;19907;-87
2022/03/30 03:11:34;;;;;;;;;;;;;;;;;;4917436;29;20002;-87
2022/03/30 03:14:05;;;;;;;;;;;;;;;;;;4917040;29;19919;-88
2022/03/30 03:16:31;;;;;;;;;;;;;;;;;;4918193;29;19907;-88
2022/03/30 03:18:57;;;;;;;;;;;;;;;;;;4916862;29;19997;-88
2022/03/30 03:21:23;;;;;;;;;;;;;;;;;;4917057;29;20009;-90
2022/03/30 03:23:49;;;;;;;;;;;;;;;;;;4917183;29;19907;-87
2022/03/30 03:26:15;;;;;;;;;;;;;;;;;;4917196;29;19955;-87
2022/03/30 03:28:41;;;;;;;;;;;;;;;;;;4917163;29;19911;-87
2022/03/30 03:31:07;;;;;;;;;;;;;;;;;;4918395;29;19914;-87
2022/03/30 03:33:33;;;;;;;;;;;;;;;;;;4917030;29;19915;-90
2022/03/30 03:35:59;;;;;;;;;;;;;;;;;;4917039;29;19907;-87
2022/03/30 03:38:25;;;;;;;;;;;;;;;;;;4916989;29;19907;-87
2022/03/30 03:40:52;;;;;;;;;;;;;;;;;;4917008;29;19907;-87
2022/03/30 03:43:18;;;;;;;;;;;;;;;;;;4916953;29;19908;-87
2022/03/30 03:45:44;;;;;;;;;;;;;;;;;;4916966;29;19907;-88
2022/03/30 03:48:10;;;;;;;;;;;;;;;;;;4916932;29;19918;-87
2022/03/30 03:50:36;;;;;;;;;;;;;;;;;;4917115;29;19906;-87
2022/03/30 03:53:02;;;;;;;;;;;;;;;;;;4917035;29;19986;-87
2022/03/30 03:55:28;;;;;;;;;;;;;;;;;;4917003;29;20352;-88
2022/03/30 03:57:54;;;;;;;;;;;;;;;;;;4916901;29;19998;-87
2022/03/30 04:00:20;;;;;;;;;;;;;;;;;;4916717;29;19907;-87
2022/03/30 04:02:46;;;;;;;;;;;;;;;;;;4920106;29;19911;-87
2022/03/30 04:05:13;;;;;;;;;;;;;;;;;;4921294;29;19998;-88
2022/03/30 04:07:39;;;;;;;;;;;;;;;;;;4921237;29;19958;-86
2022/03/30 04:10:06;;;;;;;;;;;;;;;;;;4921392;29;19914;-87
2022/03/30 04:12:32;;;;;;;;;;;;;;;;;;4920012;29;19907;-86
2022/03/30 04:14:58;;;;;;;;;;;;;;;;;;4921217;29;19918;-87
2022/03/30 04:17:24;;;;;;;;;;;;;;;;;;4921039;29;19907;-87
2022/03/30 04:19:49;;;;;;;;;;;;;;;;;;4919844;29;19945;-87
2022/03/30 04:22:17;;;;;;;;;;;;;;;;;;4919996;29;20360;-86
2022/03/30 04:24:43;;;;;;;;;;;;;;;;;;4920958;29;19913;-87
2022/03/30 04:27:09;;;;;;;;;;;;;;;;;;4919787;29;20516;-88
2022/03/30 04:29:35;;;;;;;;;;;;;;;;;;4919849;29;19907;-86
2022/03/30 04:32:01;;;;;;;;;;;;;;;;;;4919929;29;20432;-87
2022/03/30 04:34:27;;;;;;;;;;;;;;;;;;4919753;29;19915;-88
2022/03/30 04:36:54;;;;;;;;;;;;;;;;;;4920911;29;19913;-87
2022/03/30 04:39:21;;;;;;;;;;;;;;;;;;4919608;29;19918;-86
2022/03/30 04:41:47;;;;;;;;;;;;;;;;;;4919641;29;19914;-88
2022/03/30 04:44:13;;;;;;;;;;;;;;;;;;4919617;29;19907;-87
2022/03/30 04:46:39;;;;;;;;;;;;;;;;;;4919534;29;19966;-86
2022/03/30 04:49:05;;;;;;;;;;;;;;;;;;4919393;29;19907;-85
2022/03/30 04:51:31;;;;;;;;;;;;;;;;;;4920664;29;19914;-87
2022/03/30 04:53:57;;;;;;;;;;;231.00;1561.60;;;;;;4919183;29;20368;-87
2022/03/30 04:56:24;;;;;;;;;;;231.00;1868.80;;;;;;4919052;29;19911;-86
2022/03/30 04:58:50;;;;;;;;;;;231.00;1561.60;;;;;;4903596;29;19911;-87
2022/03/30 05:01:16;;;;;;;;;;;231.10;1561.60;;;;;;4919183;29;19963;-88
2022/03/30 05:03:42;;;;;;;;;;;231.20;1561.60;;;;;;4918978;29;19911;-85
2022/03/30 05:06:07;;;;;;;;;;;231.30;1536.00;;;;;;4919193;29;19955;-86
2022/03/30 05:08:33;;;;;;;;;;;231.30;1536.00;;;;;;4903279;29;20006;-87
2022/03/30 05:10:59;;;;;;;;;;;231.30;1561.60;;;;;;4920140;29;20475;-87
2022/03/30 05:13:24;;;;;;;;;;;256.00;1561.60;;;;;;4918030;29;19931;-86
2022/03/30 05:15:51;;;;;;;;;;;256.00;1536.00;;;;;;4918921;29;20360;-86
2022/03/30 05:18:17;;;;;;;;;;;256.20;1536.00;;;;;;4920064;29;19918;-86
2022/03/30 05:20:43;;;;;;;;;;;256.30;1536.00;;;;;;4918830;29;19966;-87
2022/03/30 05:23:09;;;;;;;;;;;256.30;1536.00;;;;;;4918711;29;19907;-87
2022/03/30 05:25:35;;;;;;;;;;;256.40;1536.00;;;;;;4918748;29;19930;-86
2022/03/30 05:28:00;;;;;;;;;;;256.50;1510.40;;;;;;4918602;29;20353;-87
2022/03/30 05:30:26;;;;;;;;;;;256.60;1510.40;;;;;;4918675;29;19911;-86
2022/03/30 05:32:52;;;;;;;;;;;256.70;1484.80;;;;;;4902805;29;19907;-86
2022/03/30 05:35:18;;;;;;;;;;;256.80;1510.40;;;;;;4918479;29;19908;-86
2022/03/30 05:37:47;;;;;;;;;;;256.90;1484.80;;;;;;4919595;29;19907;-85
2022/03/30 05:40:15;;;;;;;;;;;281.60;1510.40;;;;;;4902514;29;19970;-86
2022/03/30 05:42:41;;;;;;;;;;;281.70;1510.40;;;;;;4918478;29;19907;-86
2022/03/30 05:45:07;;;;;;;;;;;281.80;1484.80;;;;;;4918183;29;20328;-87
2022/03/30 05:47:33;;;;;;;;;;;281.80;1510.40;;;;;;4917916;29;19915;-86
2022/03/30 05:49:59;;;;;;;;;;;281.90;1510.40;;;;;;4902753;29;19936;-86
2022/03/30 05:52:24;;;;;;;;;;;282.00;1510.40;;;;;;4918263;29;19907;-85
2022/03/30 05:54:50;;;;;;;;;;;282.10;1510.40;;;;;;4918391;29;19966;-87
2022/03/30 05:57:16;;;;;;;;;;;282.20;1510.40;;;;;;4919356;29;19929;-86
2022/03/30 05:59:43;;;;;;;;;;;282.20;1484.80;;;;;;4919168;29;20349;-87
2022/03/30 06:02:10;;;;;;;;;;;282.30;1484.80;;;;;;4918234;29;19907;-86
2022/03/30 06:04:36;;;;;;;;;;;282.40;1484.80;;;;;;4919077;29;20026;-90
2022/03/30 06:07:02;;;;;;;;;;;282.50;1484.80;;;;;;4917988;29;19908;-89
2022/03/30 06:09:28;;;;;;;;;;;307.30;1484.80;;;;;;4918083;29;20357;-88
2022/03/30 06:11:54;;;;;;;;;;;307.40;1484.80;;;;;;4917476;29;19958;-90
2022/03/30 06:14:20;;;;;;;;;;;307.50;1510.40;;;;;;4899002;29;19995;-88
2022/03/30 06:16:46;;;;;;;;;;;307.70;1459.20;;;;;;4895115;29;19918;-87
2022/03/30 06:19:13;;;;;;;;;;;307.70;1459.20;;;;;;4918678;29;20034;-86
2022/03/30 06:21:39;;;;;;;;;;;307.80;1459.20;;;;;;4917720;29;19907;-89
2022/03/30 06:24:05;;;;;;;;;;;307.90;1433.60;;;;;;4918436;29;20360;-87
2022/03/30 06:26:31;;;;;;;;;;;308.10;1459.20;;;;;;4918732;29;19914;-86
2022/03/30 06:28:57;;;;;;;;;;;308.10;1459.20;;;;;;4917624;29;19908;-85
2022/03/30 06:31:23;;;;;;;;;;;332.80;1459.20;;;;;;4917714;29;19934;-85
2022/03/30 06:33:49;;;;;;;;;;;332.90;1459.20;;;;;;4917562;29;19915;-86
2022/03/30 06:36:15;;;;;;;;;;;333.00;1459.20;;;;;;4917047;29;19911;-87
2022/03/30 06:38:44;;;;;;;;;;;333.10;1459.20;;;;;;4917149;29;20053;-86
2022/03/30 06:41:12;;;;;;;;;;;333.20;1459.20;;;;;;4917344;29;19926;-85
2022/03/30 06:43:42;;;;;;;;;;;333.40;1459.20;;;;;;4917417;29;20386;-86
2022/03/30 06:46:09;;;;;;;;;;;333.50;1433.60;;;;;;4918431;29;20396;-86
2022/03/30 06:48:35;;;;;;;;;;;358.40;1408.00;;;;;;4917210;29;20006;-86
2022/03/30 06:51:01;;;;;;;;;;;358.50;1433.60;;;;;;4918423;29;19911;-85
2022/03/30 06:53:26;;;;;;;;;;;358.60;1408.00;;;;;;4918134;29;19934;-86
2022/03/30 06:55:52;;;;;;;;;;;358.70;1408.00;;;;;;4901557;29;19979;-85
2022/03/30 06:58:18;;;;;;;;;;;358.70;1408.00;;;;;;4917132;29;19914;-86
2022/03/30 07:00:44;;;;;;;;;;;358.90;1356.80;;;;;;4917066;29;19929;-86
2022/03/30 07:03:09;;;;;;;;;;;359.00;1331.20;;;;;;4916965;29;20328;-88
2022/03/30 07:05:35;;;;;;;;;;;359.10;1356.80;;;;;;4917018;29;19914;-85
2022/03/30 07:10:45;;;;;;;;;;;359.20;1331.20;;;;;;4918543;29;19942;-85
2022/03/30 07:13:11;;;;;;;;;;;359.20;1331.20;;;;;;4917312;29;19943;-86
2022/03/30 07:15:38;;;;;;;;;;;384.00;1331.20;;;;;;4916850;29;19919;-85
2022/03/30 07:18:06;;;;;;;;;;;384.10;1331.20;;;;;;4918798;29;19932;-86
2022/03/30 07:20:32;;;;;;;;;;;384.10;1280.00;;;;;;4934620;29;19942;-86
2022/03/30 07:22:58;;;;;;;;;;;384.30;1305.60;;;;;;4936097;29;19907;-86
2022/03/30 07:25:24;;;;;;;;;;;384.40;1305.60;;;;;;4935978;29;19906;-88
2022/03/30 07:27:51;;;;;;;;;;;384.50;1280.00;;;;;;4937117;29;19910;-86
2022/03/30 07:30:17;;;;;;;;;;;384.50;1280.00;;;;;;4935961;29;19906;-85
2022/03/30 07:32:45;;;;;;;;;;;384.60;1254.40;;;;;;4935604;29;19917;-86
2022/03/30 07:35:12;;;;;;;;;;;384.80;1254.40;;;;;;4935252;29;19965;-87
2022/03/30 07:37:38;;;;;;;;;;;409.60;1280.00;;;;;;4939462;29;19917;-87
2022/03/30 07:40:06;;;;;;;;;;;409.80;1228.80;;;;;;4940607;29;19982;-87
2022/03/30 07:42:32;;;;;;;;;;;409.80;1254.40;;;;;;4939425;29;19906;-88
2022/03/30 07:44:58;;;;;;;;;;;410.00;1228.80;;;;;;4939507;29;19907;-86
2022/03/30 07:47:25;;;;;;;;;;;410.10;1228.80;;;;;;4939067;29;19917;-86
2022/03/30 07:49:51;;;;;;;;;;;410.30;1228.80;;;;;;4940393;29;19907;-86
2022/03/30 07:52:17;;;;;;;;;;;410.40;1203.20;;;;;;4939570;29;19914;-87
2022/03/30 07:54:42;;;;;;;;;;;410.40;1177.60;;;;;;4938441;29;19919;-86
2022/03/30 07:57:08;;;;;;;;;;;410.50;1177.60;;;;;;4939727;29;19907;-87
2022/03/30 07:59:34;;;;;;;;;;;410.50;1152.00;;;;;;4939495;29;19953;-88
2022/03/30 08:02:00;;;;;;;;;;;435.30;1152.00;;;;;;4940589;29;20332;-87
2022/03/30 08:04:26;;;;;;;;;;;435.40;1126.40;;;;;;4939914;29;19913;-85
2022/03/30 08:06:52;;;;;;;;;;;435.60;1126.40;;;;;;4940200;29;20537;-84
2022/03/30 08:09:18;;;;;;;;;;;435.70;1100.80;;;;;;4939181;29;20004;-84
2022/03/30 08:11:43;;;;;;;;;;;435.70;1100.80;;;;;;4938887;29;19907;-86
2022/03/30 08:14:11;;;;;;;;;;;435.70;1100.80;;;;;;4938797;29;19922;-84
2022/03/30 08:16:37;;;;;;;;;;;435.70;1126.40;;;;;;4923094;29;20364;-86
2022/03/30 08:19:02;;;;;;;;;;;435.60;1100.80;;;;;;4938947;29;19925;-84
2022/03/30 08:24:12;;;;;;;;;;;435.60;1126.40;;;;;;4940312;29;19913;-84
2022/03/30 08:26:39;;;;;;;;;;;435.70;1100.80;;;;;;4938334;29;19914;-88
2022/03/30 08:29:08;;;;;;;;;;;435.80;1100.80;;;;;;4938726;29;20352;-85
2022/03/30 08:31:34;;;;;;;;;;;435.90;1100.80;;;;;;4939618;29;20249;-85
2022/03/30 08:34:00;;;;;;;;;;;436.10;1075.20;;;;;;4939902;29;19926;-84
2022/03/30 08:36:29;;;;;;;;;;;460.80;1100.80;;;;;;4922242;29;20287;-86
2022/03/30 08:38:56;;;;;;;;;;;460.80;1100.80;;;;;;4938410;29;19946;-84
2022/03/30 08:41:21;;;;;;;;;;;460.90;1100.80;;;;;;4938462;29;20276;-85
2022/03/30 08:43:47;;;;;;;;;;;460.80;1100.80;;;;;;4938016;29;19918;-86
2022/03/30 08:46:14;;;;;;;;;;;460.90;1100.80;;;;;;4938029;29;20249;-85
2022/03/30 08:48:40;;;;;;;;;;;461.00;1075.20;;;;;;4937935;29;19946;-84
2022/03/30 08:51:06;;;;;;;;;;;460.90;1075.20;;;;;;4922220;29;19907;-83
2022/03/30 08:53:32;;;;;;;;;;;460.90;1075.20;;;;;;4937599;29;19918;-89
2022/03/30 08:55:58;;;;;;;;;;;461.10;1075.20;;;;;;4921955;29;20394;-91
2022/03/30 08:58:23;;;;;;;;;;;461.20;1075.20;;;;;;4938445;29;20566;-90
2022/03/30 09:00:51;;;;;;;;;;;461.20;1075.20;;;;;;4938784;29;19917;-81
2022/03/30 09:03:17;;;;;;;;;;;461.30;1075.20;;;;;;4937373;29;19910;-81
2022/03/30 09:05:43;;;;;;;;;;;461.40;1049.60;;;;;;4937415;29;19911;-81
2022/03/30 09:08:14;;;;;;;;;;;461.30;1049.60;;;;;;4937537;29;19906;-85
2022/03/30 09:10:43;;;;;;;;;;;461.20;1075.20;;;;;;4937106;29;19915;-81
2022/03/30 09:13:10;;;;;;;;;;;461.10;1075.20;;;;;;4938350;29;19926;-87
2022/03/30 09:15:36;;;;;;;;;;;461.00;1075.20;;;;;;4938624;29;19906;-81
2022/03/30 09:18:03;;;;;;;;;;;461.00;1075.20;;;;;;4934027;29;20009;-82
2022/03/30 09:20:29;;;;;;;;;;;461.10;1075.20;;;;;;4934431;29;20456;-84
2022/03/30 09:22:56;;;;;;;;;;;461.10;1075.20;;;;;;4934342;29;20062;-81
2022/03/30 09:25:26;;;;;;;;;;;461.10;1075.20;;;;;;4934456;29;19910;-86
2022/03/30 09:27:52;;;;;;;;;;;461.10;1075.20;;;;;;4934260;29;19907;-82
2022/03/30 09:30:19;;;;;;;;;;;461.00;1100.80;;;;;;4918277;29;19906;-81
2022/03/30 09:32:46;;;;;;;;;;;461.10;1075.20;;;;;;4918270;29;19955;-82
2022/03/30 09:35:24;;;;;;;;;;;461.10;1075.20;;;;;;4918084;29;20412;-81
2022/03/30 09:38:03;;;;;;;;;;;461.20;1100.80;;;;;;4918014;29;19918;-83
2022/03/30 09:40:36;;;;;;;;;;;461.30;1100.80;;;;;;4917978;29;19993;-83
2022/03/30 09:43:08;;;;;;;;;;;461.30;1100.80;;;;;;4918055;29;19916;-84
2022/03/30 09:45:34;;;;;;;;;;;461.50;1075.20;;;;;;4918157;29;19913;-82
2022/03/30 09:48:10;;;;;;;;;;;461.40;1075.20;;;;;;4902355;29;20344;-82
2022/03/30 09:50:41;;;;;;;;;;;461.40;1075.20;;;;;;4917884;29;19907;-82
2022/03/30 09:53:11;;;;;;;;;;;461.50;1075.20;;;;;;4917986;29;20399;-82
2022/03/30 09:55:36;;;;;;;;;;;461.50;1075.20;;;;;;4917853;29;19907;-83
2022/03/30 09:58:06;;;;;;;;;;;461.70;1075.20;;;;;;4917876;29;20253;-82
2022/03/30 10:00:32;;;;;;;;;;;461.70;1075.20;;;;;;4918712;29;19907;-84
2022/03/30 10:02:58;;;;;;;;;;;486.40;1075.20;;;;;;4917778;29;19963;-86
2022/03/30 10:05:23;;;;;;;;;;;486.40;1075.20;;;;;;4917825;29;19907;-84
2022/03/30 10:07:50;;;;;;;;;;;461.60;1049.60;;;;;;4917729;29;19912;-84
2022/03/30 10:10:22;;;;;;;;;;;461.60;1075.20;;;;;;4917748;29;19907;-82
2022/03/30 10:12:48;;;;;;;;;;;461.70;1075.20;;;;;;4917502;29;19907;-85
2022/03/30 10:15:13;;;;;;;;;;;461.60;1075.20;;;;;;4901805;29;20250;-81
2022/03/30 10:17:39;;;;;;;;;;;461.70;1075.20;;;;;;4916832;29;19934;-85
2022/03/30 10:20:06;;;;;;;;;;;461.70;1075.20;;;;;;4917264;29;20369;-86
2022/03/30 10:22:38;;;;;;;;;;;461.60;1075.20;;;;;;4918580;29;19914;-82
2022/03/30 10:25:13;;;;;;;;;;;486.40;1075.20;;;;;;4917090;29;19911;-82
2022/03/30 10:27:41;;;;;;;;;;;486.40;1075.20;;;;;;4917362;29;20031;-81
2022/03/30 10:30:08;;;;;;;;;;;461.70;1049.60;;;;;;4918496;29;19914;-82
2022/03/30 10:32:35;;;;;;;;;;;461.70;1075.20;;;;;;4918358;29;19923;-80
2022/03/30 10:35:05;;;;;;;;;;;486.40;1049.60;;;;;;4917379;29;19921;-84
2022/03/30 10:37:34;;;;;;;;;;;486.40;1075.20;;;;;;4917239;29;20364;-83
2022/03/30 10:40:03;;;;;;;;;;;486.50;1049.60;;;;;;4918398;29;19911;-81
2022/03/30 10:42:47;;;;;;;;;;;486.60;1049.60;;;;;;4917099;29;19907;-86
2022/03/30 10:45:27;;;;;;;;;;;486.80;1049.60;;;;;;4916770;29;19991;-86
2022/03/30 10:48:07;;;;;;;;;;;486.90;1024.00;;;;;;4917421;29;19907;-84
2022/03/30 10:50:34;;;;;;;;;;;486.80;998.40;;;;;;4918065;29;19907;-88
2022/03/30 10:52:59;;;;;;;;;;;486.70;1024.00;;;;;;4917333;29;19907;-87
2022/03/30 10:55:25;;;;;;;;;;;486.90;1024.00;;;;;;4917330;29;19911;-86
2022/03/30 10:57:53;;;;;;;;;;;487.00;1024.00;;;;;;4917020;29;19911;-86
2022/03/30 11:00:23;;;;;;;;;;;487.10;998.40;;;;;;4917111;29;19986;-88
2022/03/30 11:02:48;;;;;;;;;;;487.00;1024.00;;;;;;4916843;29;19907;-86
2022/03/30 11:05:15;;;;;;;;;;;487.10;1024.00;;;;;;4916894;29;19913;-86
2022/03/30 11:07:41;;;;;;;;;;;487.10;1024.00;;;;;;4916753;29;20390;-90
2022/03/30 11:10:21;;;;;;;;;;;487.20;1024.00;;;;;;4917058;29;19935;-91
2022/03/30 11:13:06;;;;;;;;;;;487.20;998.40;;;;;;4904971;29;20368;-88
2022/03/30 11:15:53;;;;;;;;;;;512.00;998.40;;;;;;4921802;29;19939;-87
2022/03/30 11:18:19;;;;;;;;;;;512.00;972.80;;;;;;4900985;29;20014;-83
2022/03/30 11:21:03;;;;;;;;;;;512.10;998.40;;;;;;4920569;29;20334;-84
2022/03/30 11:23:29;;;;;;;;;;;512.00;972.80;;;;;;4902342;29;19911;-84
2022/03/30 11:25:56;;;;;;;;;;;512.00;972.80;;;;;;4902096;29;19929;-85
2022/03/30 11:28:33;;;;;;;;;;;512.20;972.80;;;;;;4913238;29;20432;-84
2022/03/30 11:31:01;;;;;;;;;;;512.40;947.20;;;;;;4918060;29;19963;-86
2022/03/30 11:33:28;;;;;;;;;;;512.50;947.20;;;;;;4920630;29;20361;-84
2022/03/30 11:35:54;;;;;;;;;;;512.60;947.20;;;;;;4920791;29;19915;-82
2022/03/30 11:38:25;;;;;;;;;;;512.70;947.20;;;;;;4920457;29;19911;-84
2022/03/30 11:40:56;;;;;;;;;;;512.90;921.60;;;;;;4904765;29;19961;-84
2022/03/30 11:43:23;;;;;;;;;;;512.90;921.60;;;;;;4920490;29;20356;-84
2022/03/30 11:45:50;;;;;;;;;;;537.60;947.20;;;;;;4921918;29;19907;-88
2022/03/30 11:48:16;;;;;;;;;;;512.90;921.60;;;;;;4920315;29;20368;-83
2022/03/30 11:50:47;;;;;;;;;;;512.90;921.60;;;;;;4904528;29;19908;-82
2022/03/30 11:53:14;;;;;;;;;;;512.90;921.60;;;;;;4921356;29;19918;-82
2022/03/30 11:55:53;;;;;;;;;;;537.60;947.20;;;;;;4920228;29;20368;-83
2022/03/30 11:58:29;;;;;;;;;;;512.80;896.00;;;;;;4920141;29;20320;-83
2022/03/30 12:00:56;;;;;;;;;;;512.70;896.00;;;;;;4921295;29;19907;-82
2022/03/30 12:03:22;;;;;;;;;;;512.50;896.00;;;;;;4919908;29;20415;-82
2022/03/30 12:05:54;;;;;;;;;;;512.50;896.00;;;;;;4921159;29;19907;-82
2022/03/30 12:08:20;;;;;;;;;;;512.50;896.00;;;;;;4921144;29;19918;-84
2022/03/30 12:10:48;;;;;;;;;;;512.50;870.40;;;;;;4920897;29;19907;-85
2022/03/30 12:13:20;;;;;;;;;;;512.50;896.00;;;;;;4919666;29;19911;-85
2022/03/30 12:15:45;;;;;;;;;;;512.50;896.00;;;;;;4921184;29;19966;-82
2022/03/30 12:18:11;;;;;;;;;;;512.50;896.00;;;;;;4903763;29;19967;-83
2022/03/30 12:20:37;;;;;;;;;;;512.70;896.00;;;;;;4919442;29;20345;-85
2022/03/30 12:23:04;;;;;;;;;;;512.60;870.40;;;;;;4903499;29;19914;-82
2022/03/30 12:25:37;;;;;;;;;;;512.40;896.00;;;;;;4919349;29;19911;-81
2022/03/30 12:28:03;;;;;;;;;;;512.40;921.60;;;;;;4920508;29;19907;-82
2022/03/30 12:30:30;;;;;;;;;;;512.40;921.60;;;;;;4919086;29;19907;-82
2022/03/30 12:32:56;;;;;;;;;;;512.50;921.60;;;;;;4917701;29;19962;-88
2022/03/30 12:35:22;;;;;;;;;;;512.60;921.60;;;;;;4919502;29;20285;-89
2022/03/30 12:37:49;;;;;;;;;;;512.50;921.60;;;;;;4904260;29;19907;-88
2022/03/30 12:40:17;;;;;;;;;;;512.60;921.60;;;;;;4919628;29;19923;-87
2022/03/30 12:42:44;;;;;;;;;;;512.60;921.60;;;;;;4919540;29;19950;-89
2022/03/30 12:45:11;;;;;;;;;;;512.50;921.60;;;;;;4919673;29;20036;-90
2022/03/30 12:47:38;;;;;;;;;;;512.60;921.60;;;;;;4918993;29;19911;-90
2022/03/30 12:50:10;;;;;;;;;;;512.50;921.60;;;;;;4918982;29;19931;-90
2022/03/30 12:52:45;;;;;;;;;;;512.50;921.60;;;;;;4919295;29;19907;-90
2022/03/30 12:55:32;;;;;;;;;;;512.50;896.00;;;;;;4917577;29;19915;-87
2022/03/30 12:57:58;;;;;;;;;;;512.40;896.00;;;;;;4919284;29;19907;-87
2022/03/30 13:00:28;;;;;;;;;;;512.40;896.00;;;;;;4919315;29;20356;-88
2022/03/30 13:03:05;;;;;;;;;;;512.40;896.00;;;;;;4923609;29;19926;-87
2022/03/30 13:05:31;;;;;;;;;;;512.40;896.00;;;;;;4938221;29;19914;-87
2022/03/30 13:07:57;;;;;;;;;;;512.30;896.00;;;;;;4938328;29;19906;-87
2022/03/30 13:10:23;;;;;;;;;;;512.40;921.60;;;;;;4938293;29;20379;-85
2022/03/30 13:12:54;;;;;;;;;;;512.40;896.00;;;;;;4938150;29;20348;-89
2022/03/30 13:15:21;;;;;;;;;;;512.40;896.00;;;;;;4938034;29;19926;-87
2022/03/30 13:18:13;;;;;;;;;;;512.50;896.00;;;;;;4937849;29;19911;-86
2022/03/30 13:20:41;;;;;;;;;;;512.40;896.00;;;;;;4919505;29;19915;-86
2022/03/30 13:23:08;;;;;;;;;;;512.50;896.00;;;;;;4937433;29;19913;-90
2022/03/30 13:25:35;;;;;;;;;;;512.60;896.00;;;;;;4937593;29;19938;-85
2022/03/30 13:28:05;;;;;;;;;;;512.60;921.60;;;;;;4938943;29;19906;-85
2022/03/30 13:30:31;;;;;;;;;;;512.60;896.00;;;;;;4937680;29;19917;-86
2022/03/30 13:32:57;;;;;;;;;;;512.60;896.00;;;;;;4937164;29;19950;-85
2022/03/30 13:35:23;;;;;;;;;;;512.60;896.00;;;;;;4937115;29;19911;-85
2022/03/30 13:37:49;;;;;;;;;;;512.60;921.60;;;;;;4937046;29;20323;-86
2022/03/30 13:40:15;;;;;;;;;;;512.50;896.00;;;;;;4937643;29;19914;-86
2022/03/30 13:42:41;;;;;;;;;;;512.60;896.00;;;;;;4938431;29;19907;-86
2022/03/30 13:45:07;;;;;;;;;;;512.60;896.00;;;;;;4937250;29;19907;-88
2022/03/30 13:47:33;;;;;;;;;;;512.50;896.00;;;;;;4938372;29;19949;-87
2022/03/30 13:49:59;;;;;;;;;;;512.50;870.40;;;;;;4938462;29;19950;-87
2022/03/30 13:52:25;;;;;;;;;;;512.60;921.60;;;;;;4937306;29;19934;-87
2022/03/30 13:54:51;;;;;;;;;;;512.40;921.60;;;;;;4936651;29;20371;-80
2022/03/30 13:57:17;;;;;;;;;;;512.50;921.60;;;;;;4937641;29;19920;-79
2022/03/30 13:59:43;;;;;;;;;;;512.40;921.60;;;;;;4936607;29;19954;-79
2022/03/30 14:02:10;;;;;;;;;;;512.40;921.60;;;;;;4937742;29;19915;-79
2022/03/30 14:04:36;;;;;;;;;;;512.40;896.00;;;;;;4936476;29;19913;-79
2022/03/30 14:07:03;;;;;;;;;;;512.30;896.00;;;;;;4936529;29;19907;-79
2022/03/30 14:09:31;;;;;;;;;;;512.20;921.60;;;;;;4936334;29;20282;-79
2022/03/30 14:11:58;;;;;;;;;;;512.20;921.60;;;;;;4936298;29;19906;-79
2022/03/30 14:14:23;;;;;;;;;;;512.10;921.60;;;;;;4936194;29;19915;-79
2022/03/30 14:16:49;;;;;;;;;;;512.10;921.60;;;;;;4936221;29;19914;-79
2022/03/30 14:19:16;;;;;;;;;;;512.10;896.00;;;;;;4932988;29;19919;-79
2022/03/30 14:21:43;;;;;;;;;;;512.10;921.60;;;;;;4918310;29;20357;-79
2022/03/30 14:24:09;;;;;;;;;;;512.10;921.60;;;;;;4918389;29;19907;-79
2022/03/30 14:26:35;;;;;;;;;;;512.30;921.60;;;;;;4932986;29;19911;-79
2022/03/30 14:29:00;;;;;;;;;;;512.20;921.60;;;;;;4932770;29;19962;-79
2022/03/30 14:31:26;;;;;;;;;;;512.20;896.00;;;;;;4918498;29;20321;-79
2022/03/30 14:33:52;;;;;;;;;;;512.30;921.60;;;;;;4932901;29;19922;-79
2022/03/30 14:36:18;;;;;;;;;;;512.30;896.00;;;;;;4932867;29;19910;-79
2022/03/30 14:38:44;;;;;;;;;;;512.30;896.00;;;;;;4932670;29;19914;-79
2022/03/30 14:41:09;;;;;;;;;;;512.20;896.00;;;;;;4932616;29;20316;-79